Time;durP1;ratioP1;P1;durP2;ratioP2;P2;SDS_P1;SDS_P2;PMS_P1;PMS_P2;Temp;Humidity;BMP_temperature;BMP_pressure;BME280_temperature;BME280_humidity;BME280_pressure;Samples;Min_cycle;Max_cycle;Signal;HPM_P1;HPM_P2
2023/09/15 00:01:17;;;;;;;5.00;2.37;;;13.40;99.90;;;;;;4963161;28;21072;-77
2023/09/15 00:04:04;;;;;;;4.23;2.30;;;13.40;99.90;;;;;;4958921;28;20426;-76
2023/09/15 00:06:51;;;;;;;4.30;1.93;;;13.30;99.90;;;;;;4956080;28;20475;-77
2023/09/15 00:09:37;;;;;;;3.67;2.00;;;13.30;99.90;;;;;;4972372;28;20446;-77
2023/09/15 00:12:23;;;;;;;5.23;2.60;;;13.30;99.90;;;;;;4975216;28;20432;-77
2023/09/15 00:15:10;;;;;;;5.10;1.97;;;13.30;99.90;;;;;;4961823;28;20507;-77
2023/09/15 00:17:56;;;;;;;8.33;2.20;;;13.30;99.90;;;;;;4961075;28;20447;-77
2023/09/15 00:20:42;;;;;;;4.10;1.90;;;13.30;99.90;;;;;;4961975;28;20968;-77
2023/09/15 00:23:29;;;;;;;7.47;2.13;;;13.30;99.90;;;;;;4960015;28;21230;-77
2023/09/15 00:26:15;;;;;;;3.23;2.20;;;13.10;99.90;;;;;;4969213;28;20430;-77
2023/09/15 00:29:00;;;;;;;5.70;2.00;;;13.10;99.90;;;;;;4975789;28;20441;-77
2023/09/15 00:31:47;;;;;;;6.07;2.47;;;13.10;99.90;;;;;;4977654;28;20413;-77
2023/09/15 00:34:32;;;;;;;7.47;2.30;;;13.20;99.90;;;;;;4978372;28;20447;-77
2023/09/15 00:37:18;;;;;;;11.23;2.07;;;13.20;99.90;;;;;;4973889;28;23459;-78
2023/09/15 00:40:08;;;;;;;3.83;2.00;;;13.40;99.90;;;;;;4967467;28;20428;-77
2023/09/15 00:42:54;;;;;;;4.17;2.20;;;13.40;99.90;;;;;;4966648;28;20588;-77
2023/09/15 00:45:40;;;;;;;5.23;2.33;;;13.40;99.90;;;;;;4969208;28;20446;-77
2023/09/15 00:48:26;;;;;;;3.30;1.73;;;13.30;99.90;;;;;;4961467;28;20461;-77
2023/09/15 00:51:11;;;;;;;6.40;1.73;;;13.30;99.90;;;;;;4973475;28;20522;-77
2023/09/15 00:53:58;;;;;;;6.13;1.93;;;13.10;99.90;;;;;;4969812;28;20834;-77
2023/09/15 00:56:45;;;;;;;4.07;2.10;;;13.20;99.90;;;;;;4969430;28;20598;-77
2023/09/15 00:59:31;;;;;;;4.83;1.90;;;13.10;99.90;;;;;;4968760;28;20594;-77
2023/09/15 01:02:17;;;;;;;12.73;2.30;;;13.00;99.90;;;;;;4970711;28;20507;-77
2023/09/15 01:05:04;;;;;;;4.57;2.10;;;12.90;99.90;;;;;;4967894;28;20557;-77
2023/09/15 01:07:52;;;;;;;3.47;1.90;;;12.90;99.90;;;;;;4963158;28;20466;-77
2023/09/15 01:10:37;;;;;;;7.90;2.03;;;12.80;99.90;;;;;;4968492;28;20553;-77
2023/09/15 01:13:24;;;;;;;4.30;2.50;;;12.80;99.90;;;;;;4971519;28;20417;-77
2023/09/15 01:16:16;;;;;;;3.77;2.40;;;12.80;99.90;;;;;;4966020;28;20417;-77
2023/09/15 01:19:18;;;;;;;4.10;1.90;;;12.90;99.90;;;;;;4964128;28;20454;-77
2023/09/15 01:22:39;;;;;;;3.77;2.00;;;13.10;99.90;;;;;;4962473;28;20833;-77
2023/09/15 01:25:56;;;;;;;4.70;2.20;;;13.10;99.90;;;;;;4945604;28;20451;-77
2023/09/15 01:29:14;;;;;;;5.30;1.80;;;13.10;99.90;;;;;;4969198;28;20522;-77
2023/09/15 01:32:02;;;;;;;4.90;2.00;;;13.00;99.90;;;;;;4967867;28;20944;-77
2023/09/15 01:34:48;;;;;;;3.97;2.10;;;13.00;99.90;;;;;;4970873;28;20655;-77
2023/09/15 01:37:34;;;;;;;5.10;2.10;;;12.80;99.90;;;;;;4974651;28;20445;-77
2023/09/15 01:40:20;;;;;;;3.80;1.70;;;12.70;99.90;;;;;;4967450;28;20519;-77
2023/09/15 01:43:06;;;;;;;6.40;2.40;;;12.70;99.90;;;;;;4970221;28;20443;-77
2023/09/15 01:45:51;;;;;;;4.60;2.30;;;12.70;99.90;;;;;;4975459;28;20530;-77
2023/09/15 01:48:39;;;;;;;3.00;1.90;;;12.70;99.90;;;;;;4973711;28;20834;-76
2023/09/15 01:51:27;;;;;;;4.20;2.00;;;12.60;99.90;;;;;;4972430;28;20985;-77
2023/09/15 01:54:13;;;;;;;6.23;2.40;;;12.50;99.90;;;;;;4968973;28;20542;-77
2023/09/15 01:56:59;;;;;;;8.30;2.33;;;12.60;99.90;;;;;;4974155;28;20432;-77
2023/09/15 01:59:44;;;;;;;4.80;1.90;;;12.60;99.90;;;;;;4968278;28;20856;-77
2023/09/15 02:02:30;;;;;;;5.33;2.30;;;12.70;99.90;;;;;;4979060;28;20878;-77
2023/09/15 02:05:25;;;;;;;7.90;2.20;;;12.70;99.90;;;;;;4970894;28;20923;-77
2023/09/15 02:08:11;;;;;;;5.77;2.20;;;12.70;99.90;;;;;;4973204;28;20457;-77
2023/09/15 02:10:56;;;;;;;3.83;1.90;;;12.70;99.90;;;;;;4971568;28;20458;-77
2023/09/15 02:13:43;;;;;;;6.07;2.23;;;12.60;99.90;;;;;;4981202;28;20446;-77
2023/09/15 02:16:29;;;;;;;3.77;1.93;;;12.50;99.90;;;;;;4971219;28;20443;-77
2023/09/15 02:19:15;;;;;;;4.20;2.57;;;12.40;99.90;;;;;;4972467;28;20462;-77
2023/09/15 02:22:02;;;;;;;4.97;2.30;;;12.30;99.90;;;;;;4972632;28;20473;-77
2023/09/15 02:24:47;;;;;;;3.73;2.07;;;12.40;99.90;;;;;;4980791;28;20528;-77
2023/09/15 02:27:33;;;;;;;2.90;2.13;;;12.50;99.90;;;;;;4978343;28;20527;-77
2023/09/15 02:30:18;;;;;;;3.70;2.40;;;12.60;99.90;;;;;;4972183;28;21093;-77
2023/09/15 02:33:04;;;;;;;3.80;2.27;;;12.40;99.90;;;;;;4967953;28;20778;-78
2023/09/15 02:35:50;;;;;;;3.93;2.23;;;12.50;99.90;;;;;;4976986;28;20480;-77
2023/09/15 02:38:37;;;;;;;5.63;2.30;;;12.50;99.90;;;;;;4971091;28;20448;-77
2023/09/15 02:41:23;;;;;;;6.40;2.73;;;12.60;99.90;;;;;;4974825;28;20516;-77
2023/09/15 02:44:09;;;;;;;3.73;2.17;;;12.50;99.90;;;;;;4963843;28;20417;-77
2023/09/15 02:46:55;;;;;;;4.70;2.20;;;12.40;99.90;;;;;;4971386;28;20453;-77
2023/09/15 02:49:41;;;;;;;4.60;1.90;;;12.40;99.90;;;;;;4970722;28;20499;-77
2023/09/15 02:52:26;;;;;;;2.70;1.80;;;12.40;99.90;;;;;;4967259;28;20457;-76
2023/09/15 02:55:13;;;;;;;4.53;2.17;;;12.40;99.90;;;;;;4973819;28;20952;-77
2023/09/15 02:57:59;;;;;;;4.17;2.30;;;12.40;99.90;;;;;;4972611;28;20470;-77
2023/09/15 03:00:45;;;;;;;4.70;2.90;;;12.50;99.90;;;;;;4968392;28;20451;-77
2023/09/15 03:03:31;;;;;;;3.03;2.17;;;12.50;99.90;;;;;;4967076;28;20459;-77
2023/09/15 03:06:17;;;;;;;9.30;2.30;;;12.50;99.90;;;;;;4972214;28;20856;-77
2023/09/15 03:09:03;;;;;;;4.30;1.90;;;12.50;99.90;;;;;;4971753;28;20468;-77
2023/09/15 03:11:50;;;;;;;4.77;2.43;;;12.60;99.90;;;;;;4972096;28;20421;-77
2023/09/15 03:14:35;;;;;;;7.40;2.40;;;12.60;99.90;;;;;;4976956;28;20442;-77
2023/09/15 03:17:21;;;;;;;5.13;2.57;;;12.60;99.90;;;;;;4967949;28;20812;-77
2023/09/15 03:20:13;;;;;;;7.63;2.40;;;12.50;99.90;;;;;;4970382;28;20473;-77
2023/09/15 03:22:59;;;;;;;7.47;2.17;;;12.60;99.90;;;;;;4974911;28;20506;-77
2023/09/15 03:25:45;;;;;;;3.73;1.90;;;12.60;99.90;;;;;;4976940;28;20433;-77
2023/09/15 03:28:33;;;;;;;6.17;2.40;;;12.60;99.90;;;;;;4970541;28;20452;-77
2023/09/15 03:31:19;;;;;;;15.50;2.77;;;12.40;99.90;;;;;;4969796;28;20976;-77
2023/09/15 03:34:05;;;;;;;4.50;1.93;;;12.40;99.90;;;;;;4967518;28;20502;-77
2023/09/15 03:36:51;;;;;;;6.03;2.10;;;12.40;99.90;;;;;;4969886;28;20515;-77
2023/09/15 03:39:36;;;;;;;6.03;2.07;;;12.30;99.90;;;;;;4968283;28;20451;-77
2023/09/15 03:42:22;;;;;;;4.57;2.50;;;12.10;99.90;;;;;;4972055;28;20473;-77
2023/09/15 03:45:10;;;;;;;6.10;2.23;;;12.00;99.90;;;;;;4973752;28;20823;-77
2023/09/15 03:47:56;;;;;;;3.90;2.30;;;12.00;99.90;;;;;;4964554;28;20478;-77
2023/09/15 03:50:41;;;;;;;3.70;2.07;;;11.90;99.90;;;;;;4976573;28;20424;-77
2023/09/15 03:53:27;;;;;;;6.77;2.40;;;11.90;99.90;;;;;;4970431;28;20442;-77
2023/09/15 03:56:13;;;;;;;6.07;2.33;;;11.90;99.90;;;;;;4964580;28;20488;-78
2023/09/15 03:58:58;;;;;;;4.30;2.20;;;11.80;99.90;;;;;;4969402;28;20452;-77
2023/09/15 04:01:47;;;;;;;4.20;2.00;;;11.70;99.90;;;;;;4972439;28;20560;-77
2023/09/15 04:04:33;;;;;;;5.00;2.10;;;11.80;99.90;;;;;;4967343;28;20454;-77
2023/09/15 04:07:19;;;;;;;9.13;2.97;;;11.70;99.90;;;;;;4967505;28;20531;-77
2023/09/15 04:10:06;;;;;;;5.07;2.40;;;11.80;99.90;;;;;;4968723;28;20454;-77
2023/09/15 04:12:51;;;;;;;4.60;2.50;;;11.80;99.90;;;;;;4970444;28;20965;-77
2023/09/15 04:15:37;;;;;;;3.77;2.40;;;11.90;99.90;;;;;;4970134;28;20546;-77
2023/09/15 04:18:24;;;;;;;3.10;1.70;;;11.70;99.90;;;;;;4972718;28;21046;-76
2023/09/15 04:21:10;;;;;;;4.07;2.20;;;11.80;99.90;;;;;;4966353;28;20473;-77
2023/09/15 04:23:55;;;;;;;7.17;2.40;;;11.80;99.90;;;;;;4972206;28;20462;-77
2023/09/15 04:26:42;;;;;;;4.33;2.60;;;11.80;99.90;;;;;;4966502;28;20425;-77
2023/09/15 04:29:28;;;;;;;5.30;2.97;;;11.90;99.90;;;;;;4973043;28;20461;-77
2023/09/15 04:32:13;;;;;;;6.40;2.80;;;12.00;99.90;;;;;;4971104;28;20437;-77
2023/09/15 04:35:00;;;;;;;4.57;2.70;;;12.00;99.90;;;;;;4973178;28;20454;-77
2023/09/15 04:37:46;;;;;;;9.33;2.97;;;12.00;99.90;;;;;;4974048;28;20461;-77
2023/09/15 04:40:32;;;;;;;4.70;2.77;;;12.00;99.90;;;;;;4968255;28;20451;-77
2023/09/15 04:43:18;;;;;;;6.80;3.10;;;12.10;99.90;;;;;;4967608;28;21085;-77
2023/09/15 04:46:04;;;;;;;5.40;2.30;;;12.10;99.90;;;;;;4970928;28;20462;-77
2023/09/15 04:48:50;;;;;;;5.47;2.30;;;12.20;99.90;;;;;;4976897;28;20485;-77
2023/09/15 04:51:40;;;;;;;3.80;2.20;;;12.10;99.90;;;;;;4974668;28;20474;-77
2023/09/15 04:54:26;;;;;;;4.17;2.60;;;12.20;99.90;;;;;;4973260;28;20984;-77
2023/09/15 04:57:12;;;;;;;4.67;2.50;;;12.20;99.90;;;;;;4971721;28;20954;-77
2023/09/15 04:59:57;;;;;;;7.93;2.60;;;12.20;99.90;;;;;;4969994;28;20446;-77
2023/09/15 05:02:45;;;;;;;5.70;2.33;;;12.00;99.90;;;;;;4966889;28;20450;-77
2023/09/15 05:05:30;;;;;;;3.80;1.90;;;11.80;99.90;;;;;;4960889;28;20577;-77
2023/09/15 05:08:18;;;;;;;12.63;2.80;;;11.80;99.90;;;;;;4971767;28;20452;-77
2023/09/15 05:11:03;;;;;;;3.93;2.40;;;11.90;99.90;;;;;;4973155;28;20428;-77
2023/09/15 05:13:49;;;;;;;4.97;2.33;;;11.80;99.90;;;;;;4975182;28;20442;-77
2023/09/15 05:16:35;;;;;;;5.93;2.17;;;11.70;99.90;;;;;;4970955;28;20895;-77
2023/09/15 05:19:20;;;;;;;6.50;2.67;;;11.60;99.90;;;;;;4972539;28;20439;-77
2023/09/15 05:22:06;;;;;;;4.87;2.53;;;11.70;99.90;;;;;;4966629;28;20453;-77
2023/09/15 05:24:55;;;;;;;4.00;2.63;;;11.80;99.90;;;;;;4972695;28;20429;-77
2023/09/15 05:27:40;;;;;;;4.13;2.33;;;11.70;99.90;;;;;;4964621;28;21443;-77
2023/09/15 05:30:26;;;;;;;5.27;2.60;;;11.80;99.90;;;;;;4964996;28;20860;-76
2023/09/15 05:33:12;;;;;;;3.13;2.30;;;11.90;99.90;;;;;;4967171;28;21065;-77
2023/09/15 05:35:58;;;;;;;5.33;2.90;;;11.90;99.90;;;;;;4970010;28;20457;-77
2023/09/15 05:38:44;;;;;;;4.03;2.63;;;11.90;99.90;;;;;;4969375;28;20440;-77
2023/09/15 05:41:31;;;;;;;4.93;2.40;;;11.90;99.90;;;;;;4970394;28;20447;-77
2023/09/15 05:44:17;;;;;;;8.03;3.20;;;12.00;99.90;;;;;;4968164;28;20484;-77
2023/09/15 05:47:02;;;;;;;7.37;2.60;;;12.00;99.90;;;;;;4969906;28;20421;-77
2023/09/15 05:49:48;;;;;;;4.63;2.37;;;12.10;99.90;;;;;;4967278;28;20470;-77
2023/09/15 05:52:33;;;;;;;5.70;2.80;;;12.10;99.90;;;;;;4970173;28;20446;-77
2023/09/15 05:55:19;;;;;;;4.40;2.50;;;12.10;99.90;;;;;;4973190;28;20430;-77
2023/09/15 05:58:06;;;;;;;3.33;2.03;;;12.10;99.90;;;;;;4957453;28;20554;-76
2023/09/15 06:00:55;;;;;;;6.90;2.67;;;12.10;99.90;;;;;;4967583;28;20443;-76
2023/09/15 06:03:42;;;;;;;5.63;2.50;;;12.10;99.90;;;;;;4968430;28;20613;-76
2023/09/15 06:06:27;;;;;;;3.73;2.30;;;12.20;99.90;;;;;;4967901;28;20424;-76
2023/09/15 06:09:13;;;;;;;5.13;2.73;;;12.20;99.90;;;;;;4964428;28;20439;-76
2023/09/15 06:11:58;;;;;;;3.67;2.47;;;12.20;99.90;;;;;;4964503;28;20448;-76
2023/09/15 06:14:46;;;;;;;4.03;2.63;;;12.20;99.90;;;;;;4973079;28;20970;-76
2023/09/15 06:17:32;;;;;;;5.33;2.60;;;12.30;99.90;;;;;;4969849;28;20474;-76
2023/09/15 06:20:18;;;;;;;3.73;2.30;;;12.40;99.90;;;;;;4967019;28;20514;-76
2023/09/15 06:23:04;;;;;;;5.03;3.20;;;12.40;99.90;;;;;;4972142;28;21012;-76
2023/09/15 06:25:50;;;;;;;6.47;2.73;;;12.50;99.90;;;;;;4963778;28;20458;-75
2023/09/15 06:28:36;;;;;;;3.63;2.50;;;12.70;99.90;;;;;;4975052;28;20481;-76
2023/09/15 06:31:23;;;;;;;4.20;2.83;;;12.70;99.90;;;;;;4976770;28;20440;-76
2023/09/15 06:34:09;;;;;;;4.77;2.77;;;12.80;99.90;;;;;;4968580;28;20427;-76
2023/09/15 06:36:55;;;;;;;7.87;2.70;;;13.00;99.90;;;;;;4969740;28;20446;-76
2023/09/15 06:39:40;;;;;;;4.20;2.60;;;13.00;99.90;;;;;;4969102;28;20557;-76
2023/09/15 06:42:26;;;;;;;4.73;3.07;;;13.00;99.90;;;;;;4968962;28;20997;-76
2023/09/15 06:45:12;;;;;;;4.50;2.70;;;13.20;99.90;;;;;;4973955;28;20533;-76
2023/09/15 06:48:00;;;;;;;4.57;2.60;;;13.30;99.90;;;;;;4969584;28;20499;-76
2023/09/15 06:50:45;;;;;;;6.33;2.70;;;13.30;99.90;;;;;;4966988;28;20459;-76
2023/09/15 06:53:31;;;;;;;4.00;2.80;;;13.40;99.90;;;;;;4966702;28;20422;-76
2023/09/15 06:56:17;;;;;;;6.27;2.73;;;13.50;99.90;;;;;;4966543;28;20433;-77
2023/09/15 06:59:03;;;;;;;4.17;2.97;;;13.70;99.90;;;;;;4971660;28;20668;-77
2023/09/15 07:01:48;;;;;;;4.73;2.90;;;13.80;99.90;;;;;;4970444;28;20482;-77
2023/09/15 07:04:35;;;;;;;3.73;2.43;;;13.90;99.90;;;;;;4976283;28;20444;-77
2023/09/15 07:07:21;;;;;;;5.77;2.80;;;14.00;99.90;;;;;;4965543;28;20924;-77
2023/09/15 07:10:08;;;;;;;4.80;2.47;;;14.10;99.90;;;;;;4967470;28;20802;-77
2023/09/15 07:12:54;;;;;;;9.90;2.53;;;14.20;99.90;;;;;;4970459;28;20474;-77
2023/09/15 07:15:40;;;;;;;7.23;2.80;;;14.30;99.90;;;;;;4972048;28;21185;-77
2023/09/15 07:18:25;;;;;;;5.13;2.90;;;14.50;99.90;;;;;;4970960;28;20577;-77
2023/09/15 07:21:13;;;;;;;5.67;2.90;;;14.60;99.90;;;;;;4972997;28;20424;-77
2023/09/15 07:23:59;;;;;;;4.97;3.30;;;14.60;99.90;;;;;;4965985;28;21730;-78
2023/09/15 07:26:44;;;;;;;8.53;2.87;;;14.80;99.90;;;;;;4970934;28;20455;-77
2023/09/15 07:29:30;;;;;;;5.03;3.13;;;14.90;99.90;;;;;;4974672;28;20559;-77
2023/09/15 07:32:16;;;;;;;7.70;3.40;;;15.10;99.90;;;;;;4976681;28;20491;-77
2023/09/15 07:35:01;;;;;;;4.53;2.53;;;15.20;99.90;;;;;;4981911;28;20459;-78
2023/09/15 07:37:48;;;;;;;8.23;3.40;;;15.40;99.90;;;;;;4977752;28;20436;-77
2023/09/15 07:40:34;;;;;;;5.40;3.00;;;15.60;99.90;;;;;;4972636;28;20451;-76
2023/09/15 07:43:20;;;;;;;5.00;3.20;;;15.70;99.90;;;;;;4970103;28;20495;-78
2023/09/15 07:46:06;;;;;;;6.07;2.63;;;15.80;99.90;;;;;;4984478;28;20488;-78
2023/09/15 07:48:51;;;;;;;6.57;3.77;;;15.90;99.90;;;;;;4984905;28;20459;-77
2023/09/15 07:51:37;;;;;;;4.10;2.73;;;16.00;99.90;;;;;;4984422;28;20494;-77
2023/09/15 07:54:25;;;;;;;5.23;2.97;;;16.20;99.90;;;;;;4984769;28;20423;-77
2023/09/15 07:57:11;;;;;;;6.43;2.77;;;16.30;99.90;;;;;;4972695;28;20633;-77
2023/09/15 07:59:57;;;;;;;5.13;3.60;;;16.50;99.90;;;;;;4977696;28;20433;-77
2023/09/15 08:02:43;;;;;;;4.57;2.90;;;16.60;99.90;;;;;;4967214;28;20477;-76
2023/09/15 08:05:29;;;;;;;10.03;3.20;;;16.80;99.90;;;;;;4969195;28;20451;-77
2023/09/15 08:08:15;;;;;;;6.73;3.10;;;16.90;99.90;;;;;;4970819;28;20479;-77
2023/09/15 08:11:02;;;;;;;4.27;2.90;;;17.10;99.90;;;;;;4967231;28;20439;-78
2023/09/15 08:13:48;;;;;;;4.00;2.57;;;17.20;99.90;;;;;;4969776;28;20439;-77
2023/09/15 08:16:34;;;;;;;5.60;2.63;;;17.30;99.90;;;;;;4966570;28;20449;-77
2023/09/15 08:19:20;;;;;;;5.77;3.10;;;17.50;99.90;;;;;;4976159;28;20525;-77
2023/09/15 08:22:06;;;;;;;6.20;2.80;;;17.50;99.90;;;;;;4968278;28;20448;-77
2023/09/15 08:24:52;;;;;;;10.43;3.60;;;17.60;99.90;;;;;;4974691;28;20480;-77
2023/09/15 08:27:39;;;;;;;4.63;3.40;;;17.70;99.90;;;;;;4969521;28;20542;-77
2023/09/15 08:30:25;;;;;;;7.97;3.50;;;17.70;99.90;;;;;;4969522;28;20453;-77
2023/09/15 08:33:11;;;;;;;7.40;4.50;;;17.90;99.90;;;;;;4964419;28;20456;-77
2023/09/15 08:35:56;;;;;;;8.03;3.13;;;18.00;99.90;;;;;;4970775;28;20423;-76
2023/09/15 08:38:42;;;;;;;7.13;3.50;;;18.20;99.90;;;;;;4970244;28;20467;-77
2023/09/15 08:41:32;;;;;;;7.97;3.70;;;18.40;99.90;;;;;;4967662;28;20587;-77
2023/09/15 08:44:19;;;;;;;10.13;3.57;;;18.50;99.90;;;;;;4961339;28;20473;-76
2023/09/15 08:47:07;;;;;;;4.77;3.67;;;18.70;99.90;;;;;;4965477;28;20505;-76
2023/09/15 08:49:53;;;;;;;4.90;3.63;;;18.90;99.90;;;;;;4970496;28;20525;-76
2023/09/15 08:52:40;;;;;;;4.33;2.80;;;19.00;99.90;;;;;;4970054;28;21058;-76
2023/09/15 08:55:26;;;;;;;12.13;4.07;;;19.20;99.90;;;;;;4967297;28;20445;-77
2023/09/15 08:58:13;;;;;;;5.80;3.70;;;19.20;99.90;;;;;;4972129;28;20473;-77
2023/09/15 09:01:01;;;;;;;6.07;3.60;;;19.30;99.90;;;;;;4965801;28;20447;-77
2023/09/15 09:03:47;;;;;;;6.00;4.23;;;19.40;99.90;;;;;;4963682;28;20610;-76
2023/09/15 09:06:34;;;;;;;8.50;4.13;;;19.50;99.90;;;;;;4966636;28;20441;-76
2023/09/15 09:09:20;;;;;;;5.97;4.33;;;19.60;99.90;;;;;;4956719;28;20574;-76
2023/09/15 09:12:06;;;;;;;4.57;3.97;;;19.60;99.90;;;;;;4968592;28;20850;-77
2023/09/15 09:14:55;;;;;;;8.07;3.67;;;19.70;99.90;;;;;;4963853;28;20446;-77
2023/09/15 09:17:41;;;;;;;11.50;3.80;;;19.80;99.90;;;;;;4965502;28;20491;-77
2023/09/15 09:20:28;;;;;;;5.03;4.00;;;20.00;99.90;;;;;;4959322;28;20448;-77
2023/09/15 09:23:13;;;;;;;6.63;3.67;;;20.20;99.90;;;;;;4958282;28;20839;-77
2023/09/15 09:26:00;;;;;;;9.63;3.63;;;20.40;99.90;;;;;;4969743;28;20554;-77
2023/09/15 09:28:46;;;;;;;5.27;2.80;;;20.50;99.90;;;;;;4969225;28;20466;-76
2023/09/15 09:31:32;;;;;;;4.20;3.60;;;20.70;99.90;;;;;;4979463;28;20441;-77
2023/09/15 09:34:19;;;;;;;5.27;3.40;;;20.80;99.90;;;;;;4970318;28;20441;-76
2023/09/15 09:37:05;;;;;;;8.37;3.33;;;20.80;98.00;;;;;;4979495;28;20447;-75
2023/09/15 09:39:53;;;;;;;4.47;3.30;;;20.90;98.50;;;;;;4971406;28;20447;-76
2023/09/15 09:42:39;;;;;;;5.03;3.63;;;21.00;99.10;;;;;;4970786;28;20530;-76
2023/09/15 09:45:28;;;;;;;6.30;4.10;;;21.00;96.60;;;;;;4973544;28;20549;-75
2023/09/15 09:48:13;;;;;;;5.60;4.07;;;21.00;95.60;;;;;;4971655;28;20526;-75
2023/09/15 09:51:02;;;;;;;5.23;3.30;;;21.10;98.30;;;;;;4995476;22;20856;-70
2023/09/15 09:53:53;;;;;;;5.37;3.73;;;21.30;99.90;;;;;;4993737;28;20435;-70
2023/09/15 09:56:38;;;;;;;4.40;3.30;;;21.50;99.90;;;;;;4986702;28;20490;-70
2023/09/15 09:59:24;;;;;;;5.70;3.43;;;21.60;98.20;;;;;;4995949;28;20497;-70
2023/09/15 10:02:11;;;;;;;4.10;3.00;;;21.60;91.50;;;;;;4988152;28;20811;-70
2023/09/15 10:04:56;;;;;;;4.83;3.10;;;21.80;91.70;;;;;;4996569;28;20556;-70
2023/09/15 10:07:45;;;;;;;4.23;2.97;;;21.90;90.90;;;;;;4992041;28;20450;-70
2023/09/15 10:10:32;;;;;;;6.77;3.60;;;21.90;91.80;;;;;;5002167;28;20464;-70
2023/09/15 10:13:18;;;;;;;5.40;3.43;;;21.90;92.00;;;;;;4996574;28;20443;-70
2023/09/15 10:16:04;;;;;;;4.70;3.13;;;21.80;91.60;;;;;;5000025;28;20457;-70
2023/09/15 10:18:51;;;;;;;6.97;2.90;;;21.90;92.70;;;;;;5001271;28;20839;-70
2023/09/15 10:21:38;;;;;;;5.23;3.43;;;22.10;92.00;;;;;;4991494;28;21117;-71
2023/09/15 10:24:26;;;;;;;3.90;2.80;;;22.20;85.70;;;;;;4989182;28;20528;-70
2023/09/15 10:27:12;;;;;;;4.10;3.00;;;22.40;86.60;;;;;;4985614;28;20445;-70
2023/09/15 10:30:04;;;;;;;5.30;3.50;;;22.60;90.20;;;;;;4990220;28;20447;-71
2023/09/15 10:32:53;;;;;;;5.80;3.10;;;22.70;83.40;;;;;;4995151;28;20448;-70
2023/09/15 10:35:39;;;;;;;4.00;3.00;;;22.80;81.00;;;;;;4993062;28;20470;-70
2023/09/15 10:38:29;;;;;;;6.43;2.90;;;23.00;82.40;;;;;;4991064;28;20453;-70
2023/09/15 10:41:27;;;;;;;7.10;2.87;;;23.20;79.70;;;;;;4991857;28;20928;-70
2023/09/15 10:44:13;;;;;;;4.90;2.50;;;23.30;77.30;;;;;;4993203;28;20484;-70
2023/09/15 10:46:59;;;;;;;6.63;2.87;;;23.40;69.40;;;;;;4992276;28;20957;-70
2023/09/15 10:49:52;;;;;;;6.00;2.87;;;23.50;68.60;;;;;;4996616;28;20448;-70
2023/09/15 10:52:39;;;;;;;8.00;2.73;;;23.60;70.10;;;;;;4989364;28;20508;-70
2023/09/15 10:55:26;;;;;;;4.80;3.50;;;23.70;66.50;;;;;;4985724;28;20510;-70
2023/09/15 10:58:16;;;;;;;5.90;2.87;;;23.80;62.80;;;;;;4991894;28;20453;-70
2023/09/15 11:01:02;;;;;;;3.57;2.43;;;23.90;47.80;;;;;;4980474;28;20552;-70
2023/09/15 11:03:49;;;;;;;4.10;2.60;;;23.90;43.20;;;;;;4990630;28;20469;-70
2023/09/15 11:06:35;;;;;;;3.87;2.30;;;24.00;48.10;;;;;;4991003;28;20472;-70
2023/09/15 11:09:21;;;;;;;3.80;2.23;;;24.10;47.70;;;;;;4993324;28;20449;-70
2023/09/15 11:12:08;;;;;;;9.10;2.73;;;24.10;45.90;;;;;;4995966;28;20467;-70
2023/09/15 11:15:00;;;;;;;5.87;2.60;;;24.10;40.70;;;;;;4992537;28;20693;-70
2023/09/15 11:17:46;;;;;;;4.10;2.90;;;24.30;44.20;;;;;;4994587;28;20451;-70
2023/09/15 11:20:31;;;;;;;6.03;2.60;;;24.20;35.10;;;;;;4992746;28;20958;-70
2023/09/15 11:23:18;;;;;;;3.40;2.50;;;24.10;33.70;;;;;;4992978;28;20443;-70
2023/09/15 11:26:05;;;;;;;5.63;2.63;;;24.20;41.30;;;;;;4988209;28;20495;-70
2023/09/15 11:28:52;;;;;;;4.33;2.87;;;24.20;43.30;;;;;;4984325;28;21368;-70
2023/09/15 11:31:39;;;;;;;11.03;2.63;;;24.20;42.50;;;;;;4982810;28;20476;-70
2023/09/15 11:34:26;;;;;;;3.40;2.40;;;24.20;41.70;;;;;;4989480;28;20471;-70
2023/09/15 11:37:14;;;;;;;5.90;2.43;;;24.30;38.30;;;;;;4991647;28;20449;-70
2023/09/15 11:39:59;;;;;;;2.83;1.80;;;24.30;34.90;;;;;;4986086;28;20463;-70
2023/09/15 11:42:52;;;;;;;3.00;2.30;;;24.40;36.60;;;;;;4989737;28;20442;-70
2023/09/15 11:45:38;;;;;;;5.17;3.20;;;24.40;44.30;;;;;;4992740;28;20953;-70
2023/09/15 11:48:25;;;;;;;4.47;2.83;;;24.50;41.90;;;;;;4986329;28;20553;-70
2023/09/15 11:51:13;;;;;;;6.27;2.97;;;24.50;38.60;;;;;;4988901;28;20483;-70
2023/09/15 11:53:59;;;;;;;4.20;2.43;;;24.60;42.20;;;;;;4990248;28;20459;-70
2023/09/15 11:56:45;;;;;;;5.60;3.00;;;24.60;39.70;;;;;;4987285;28;21090;-70
2023/09/15 11:59:30;;;;;;;3.23;2.30;;;24.70;34.40;;;;;;4987157;28;20457;-70
2023/09/15 12:02:20;;;;;;;8.73;2.50;;;24.80;39.00;;;;;;4987394;28;20488;-70
2023/09/15 12:05:09;;;;;;;6.70;3.37;;;24.90;34.10;;;;;;4988084;28;20859;-70
2023/09/15 12:07:55;;;;;;;3.87;2.43;;;25.00;34.10;;;;;;4986789;28;20451;-70
2023/09/15 12:10:42;;;;;;;3.57;2.37;;;25.10;35.00;;;;;;4987301;28;20830;-70
2023/09/15 12:13:36;;;;;;;3.43;2.30;;;25.20;31.20;;;;;;4987066;28;20592;-70
2023/09/15 12:16:27;;;;;;;3.10;2.17;;;25.30;31.50;;;;;;4989388;28;20476;-70
2023/09/15 12:19:13;;;;;;;3.40;2.20;;;25.40;30.00;;;;;;4988688;28;20558;-70
2023/09/15 12:22:02;;;;;;;3.60;2.30;;;25.50;31.60;;;;;;4985457;28;20486;-70
2023/09/15 12:24:47;;;;;;;3.73;2.27;;;25.60;28.00;;;;;;4989715;28;20489;-70
2023/09/15 12:27:33;;;;;;;4.00;2.70;;;25.70;25.10;;;;;;4985955;28;21019;-70
2023/09/15 12:30:19;;;;;;;5.30;2.23;;;25.80;24.90;;;;;;4988194;28;20446;-71
2023/09/15 12:33:05;;;;;;;2.90;2.10;;;25.80;25.10;;;;;;4987626;28;20447;-70
2023/09/15 12:35:52;;;;;;;3.30;2.40;;;25.90;26.40;;;;;;4988066;28;20472;-70
2023/09/15 12:38:39;;;;;;;3.67;2.43;;;26.00;24.70;;;;;;4982451;28;20566;-70
2023/09/15 12:41:25;;;;;;;3.60;2.17;;;26.00;23.00;;;;;;4985731;28;20481;-70
2023/09/15 12:44:11;;;;;;;3.70;2.60;;;26.00;24.00;;;;;;4994436;28;21000;-70
2023/09/15 12:46:58;;;;;;;3.20;2.37;;;26.10;26.10;;;;;;4988929;28;20449;-70
2023/09/15 12:49:44;;;;;;;3.60;2.40;;;26.30;26.80;;;;;;4992182;28;20447;-70
2023/09/15 12:52:29;;;;;;;3.73;2.23;;;26.40;26.80;;;;;;4989101;28;20466;-71
2023/09/15 12:55:18;;;;;;;2.90;1.80;;;26.60;24.90;;;;;;4986311;28;20454;-71
2023/09/15 12:58:06;;;;;;;4.07;2.83;;;26.80;24.20;;;;;;4994021;28;20470;-71
2023/09/15 13:00:52;;;;;;;4.20;2.30;;;27.00;22.40;;;;;;4987827;28;20604;-70
2023/09/15 13:03:40;;;;;;;3.70;2.60;;;27.20;21.50;;;;;;4982537;28;20968;-70
2023/09/15 13:06:26;;;;;;;3.60;2.60;;;27.50;21.10;;;;;;4995024;28;20506;-70
2023/09/15 13:09:12;;;;;;;5.47;2.67;;;27.70;20.70;;;;;;4986320;28;20736;-70
2023/09/15 13:11:59;;;;;;;3.80;2.37;;;27.70;20.60;;;;;;4992400;28;20472;-70
2023/09/15 13:14:47;;;;;;;3.47;2.23;;;27.70;19.30;;;;;;4989216;28;20437;-70
2023/09/15 13:17:32;;;;;;;4.70;2.30;;;27.70;19.80;;;;;;4986080;28;20805;-70
2023/09/15 13:20:18;;;;;;;3.40;2.33;;;27.90;20.80;;;;;;4992095;28;20770;-70
2023/09/15 13:23:04;;;;;;;5.43;2.50;;;28.00;20.50;;;;;;4989993;28;20453;-70
2023/09/15 13:25:50;;;;;;;4.00;2.90;;;28.10;19.50;;;;;;4991004;28;20521;-70
2023/09/15 13:28:37;;;;;;;3.60;2.67;;;28.20;18.60;;;;;;4982013;28;20954;-71
2023/09/15 13:31:22;;;;;;;4.10;2.70;;;28.40;18.20;;;;;;4976610;28;20529;-71
2023/09/15 13:34:08;;;;;;;4.07;2.60;;;28.40;18.80;;;;;;4972340;28;20511;-70
2023/09/15 13:36:54;;;;;;;5.00;2.97;;;28.50;19.20;;;;;;4989933;28;20464;-71
2023/09/15 13:39:39;;;;;;;4.00;2.93;;;28.60;17.30;;;;;;4993401;28;20850;-71
2023/09/15 13:42:31;;;;;;;4.63;3.60;;;28.60;18.30;;;;;;4995014;28;20569;-70
2023/09/15 13:45:18;;;;;;;3.93;2.77;;;28.60;18.00;;;;;;4997672;28;21202;-71
2023/09/15 13:48:04;;;;;;;4.43;2.90;;;28.60;16.60;;;;;;4999110;28;20455;-71
2023/09/15 13:50:53;;;;;;;4.60;3.20;;;28.70;16.90;;;;;;4997069;28;20478;-71
2023/09/15 13:53:39;;;;;;;8.70;3.07;;;28.70;17.80;;;;;;4998505;28;20453;-70
2023/09/15 13:56:25;;;;;;;4.03;2.93;;;28.80;15.90;;;;;;4996199;28;20954;-70
2023/09/15 13:59:11;;;;;;;4.80;2.83;;;28.90;16.60;;;;;;4994168;28;20978;-70
2023/09/15 14:01:58;;;;;;;5.77;3.13;;;28.90;17.10;;;;;;4994087;28;21012;-70
2023/09/15 14:04:44;;;;;;;4.53;2.67;;;29.00;17.10;;;;;;4996099;28;20503;-70
2023/09/15 14:07:30;;;;;;;4.10;2.70;;;29.00;16.30;;;;;;4999034;28;20454;-70
2023/09/15 14:10:16;;;;;;;3.47;2.23;;;29.00;16.50;;;;;;4994274;28;20544;-71
2023/09/15 14:13:01;;;;;;;4.17;2.30;;;28.80;14.60;;;;;;4996556;28;20441;-71
2023/09/15 14:15:47;;;;;;;4.37;2.80;;;28.90;15.00;;;;;;4995426;28;20450;-70
2023/09/15 14:18:34;;;;;;;3.27;2.33;;;28.90;15.70;;;;;;4998439;28;21311;-71
2023/09/15 14:21:20;;;;;;;3.80;2.53;;;28.80;14.40;;;;;;4996474;28;20479;-71
2023/09/15 14:24:07;;;;;;;9.47;2.47;;;28.80;15.30;;;;;;4999937;28;20442;-70
2023/09/15 14:26:53;;;;;;;5.10;2.80;;;28.80;16.00;;;;;;4990290;28;20776;-71